Old Saybrook, CT (06475)

5:20 PM EDT on July 30, 2016 (GMT -0400)
Blueberry Lane | | Change Station
Active Advisory: Areal Flood Advisory

Elev 9 ft 41.28 °N, 72.39 °W | Updated 5 minutes ago

Scattered Clouds
Scattered Clouds
85.1 °F
Feels Like 93 °F
N
0.6
Wind Variable Wind from West
Gusts 2.5 mph

Today
High -- | Low -- °F
--% Chance of Precip.
Yesterday
High -- | Low -- °F
Precip. -- in
Pressure 30.02 in
Visibility 10.0 miles
Clouds Scattered Clouds 1500 ft
Scattered Clouds 2000 ft
Scattered Clouds 2400 ft
Heat Index 93 °F
Dew Point 75 °F
Humidity 71%
Rainfall 0.00 in
Snow Depth Not available.
5:43 AM 8:08 PM
Waning Crescent, 11% visible
METAR KSNC 302115Z AUTO 18006KT 10SM SCT015 SCT020 SCT024 26/22 A3002 RMK AO2
Pressure 30.02 in
Visibility 10.0 miles
Clouds Scattered Clouds 1500 ft
Scattered Clouds 2000 ft
Scattered Clouds 2400 ft
Heat Index 93 °F
Dew Point 75 °F
Humidity 71%
Rainfall 0.00 in
Snow Depth Not available.
5:43 AM 8:08 PM
Waning Crescent, 11% visible
METAR KSNC 302115Z AUTO 18006KT 10SM SCT015 SCT020 SCT024 26/22 A3002 RMK AO2

10-Day Weather Forecast

Almanac

Astronomy

Jul. 30, 2016 Rise Set
Actual Time
Civil Twilight
Nautical Twilight
Astronomical Twilight
Moon
Length of Visible Light
Length of Day
Tomorrow will be .
, % of the Moon is Illuminated

Today's Extremes

State Highs State Lows

Community

WunderPhotos

Upload Photos

1,928,645 photos uploaded!

WunderBlog® & News

Nearby

Air Quality

  Air Quality AQ Index Pollutant
Not available.

Snow Depth

Station Depth Elevation

Earthquake Activity

City Distance Mag. Time & Date
Minimum magnitude displayed is 2.5.

Coastal Water Temperatures

Place Temperature

Stations

Nearby Weather Stations

Station Location Temp. Windchill Dew Point Humidity Wind Precip. Elev Updated Type
                   

Watches & Warnings

Areal Flood Advisory
Issued: 5:05 PM EDT Jul. 30, 2016 – National Weather Service

The National Weather Service in Upton NY has issued a

* Flood Advisory for minor flooding in poor drainage areas for...
northern Middlesex County in southern Connecticut...

* until 700 PM EDT

* at 504 PM EDT... Doppler radar indicated heavy rain causing minor
flooding. Overflowing poor drainage areas will result in minor
flooding in the advisory area. Up to two inches of rain have
already fallen.

* Some locations that will experience flooding include...
Middletown... Colchester... East Hampton... Durham... Hartford...
Berlin... Rocky Hill... Cromwell... Portland... East Haddam... Haddam...
Marlborough... Middlefield...
lake pocotopaug--East Hampton and Moodus.

Additional rainfall of 1 to 2 inches are expected over the
area.

Cromwell is the most likely place to experience minor flooding.

Precautionary/preparedness actions...


Lat... Lon 4153 7243 4153 7239 4151 7238 4148 7274
      4159 7275 4159 7273 4160 7273 4161 7272
      4163 7271 4164 7263 4163 7262 4165 7250